Terminal Aerodrome Forecast
Issued by NWS

Home | Current Version | Previous Version | Text Only | Print | Product List | Glossary On
Versions: 1 2 3 4 5 6 7 8 9 10 11 12 13 14 15 16 17 18 19 20 21 22 23 24 25 26 27 28
000
FTUS41 KBOX 280637 AAB
TAFACK
TAF AMD
KACK 280637Z 2807/2906 00000KT P6SM SKC
      TEMPO 2807/2810 1/2SM FG VV003
     FM281000 05006KT P6SM FEW250
     FM281800 09009KT P6SM FEW250
     FM282300 14008KT P6SM FEW250
     FM290500 19006KT P6SM SCT150=

USA.gov is the U.S. government's official web portal to all federal, state and local government web resources and services.